createdAt,value
2018-12-13T00:00:08.783Z,1015.00
2018-12-13T00:01:08.762Z,1014.97
2018-12-13T00:02:08.738Z,1014.98
2018-12-13T00:03:08.735Z,1014.91
2018-12-13T00:04:08.711Z,1014.97
2018-12-13T00:05:08.738Z,1014.90
2018-12-13T00:06:08.694Z,1014.92
2018-12-13T00:07:08.686Z,1014.91
2018-12-13T00:08:08.686Z,1014.93
2018-12-13T00:09:08.665Z,1014.84
2018-12-13T00:10:08.680Z,1014.86
2018-12-13T00:11:08.647Z,1014.84
2018-12-13T00:12:08.624Z,1014.82
2018-12-13T00:13:08.619Z,1014.81
2018-12-13T00:14:08.614Z,1014.78
2018-12-13T00:16:17.828Z,1014.79
2018-12-13T00:17:18.807Z,1014.73
2018-12-13T00:18:18.785Z,1014.74
2018-12-13T00:19:18.776Z,1014.74
2018-12-13T00:20:18.765Z,1014.72
2018-12-13T00:21:18.784Z,1014.73
2018-12-13T00:22:18.756Z,1014.73
2018-12-13T00:23:18.741Z,1014.75
2018-12-13T00:24:18.733Z,1014.73
2018-12-13T00:25:18.718Z,1014.76
2018-12-13T00:26:18.736Z,1014.77
2018-12-13T00:27:18.704Z,1014.72
2018-12-13T00:28:18.684Z,1014.72
2018-12-13T00:29:18.671Z,1014.70
2018-12-13T00:30:18.659Z,1014.71
2018-12-13T00:31:18.672Z,1014.70
2018-12-13T00:32:18.636Z,1014.68
2018-12-13T00:33:18.626Z,1014.67
2018-12-13T00:34:18.619Z,1014.69
2018-12-13T00:35:18.602Z,1014.67
2018-12-13T00:36:18.617Z,1014.67
2018-12-13T00:37:18.597Z,1014.64
2018-12-13T00:38:18.571Z,1014.65
2018-12-13T00:39:18.565Z,1014.63
2018-12-13T00:40:18.555Z,1014.63
2018-12-13T00:41:18.568Z,1014.70
2018-12-13T00:42:18.535Z,1014.67
2018-12-13T00:43:18.524Z,1014.67
2018-12-13T00:44:18.507Z,1014.74
2018-12-13T00:45:18.494Z,1014.69
2018-12-13T00:46:18.522Z,1014.70
2018-12-13T00:47:18.479Z,1014.70
2018-12-13T00:48:18.475Z,1014.72
2018-12-13T00:49:18.463Z,1014.74
2018-12-13T00:50:18.444Z,1014.72
2018-12-13T00:51:18.456Z,1014.70
2018-12-13T00:52:18.429Z,1014.72
2018-12-13T00:53:18.416Z,1014.71
2018-12-13T00:54:18.414Z,1014.69
2018-12-13T00:55:18.389Z,1014.67
2018-12-13T00:56:18.421Z,1014.66
2018-12-13T00:57:18.387Z,1014.69
2018-12-13T00:58:18.363Z,1014.67
2018-12-13T00:59:18.352Z,1014.67
2018-12-13T01:00:18.380Z,1014.68
2018-12-13T01:01:18.350Z,1014.66
2018-12-13T01:02:18.320Z,1014.65
2018-12-13T01:03:18.300Z,1014.63
2018-12-13T01:04:18.300Z,1014.61
2018-12-13T01:05:18.287Z,1014.60
2018-12-13T01:06:18.315Z,1014.61
2018-12-13T01:07:18.262Z,1014.62
2018-12-13T01:08:18.247Z,1014.60
2018-12-13T01:09:18.244Z,1014.60
2018-12-13T01:10:18.232Z,1014.55
2018-12-13T01:11:18.223Z,1014.57
2018-12-13T01:12:18.230Z,1014.58
2018-12-13T01:13:18.195Z,1014.52
2018-12-13T01:14:18.191Z,1014.52
2018-12-13T01:15:18.176Z,1014.51
2018-12-13T01:16:18.162Z,1014.48
2018-12-13T01:17:18.173Z,1014.51
2018-12-13T01:18:18.143Z,1014.51
2018-12-13T01:19:18.137Z,1014.58
2018-12-13T01:20:18.114Z,1014.56
2018-12-13T01:21:20.830Z,1014.57
2018-12-13T01:22:18.126Z,1014.56
2018-12-13T01:23:18.093Z,1014.54
2018-12-13T01:24:18.070Z,1014.58
2018-12-13T01:25:18.074Z,1014.53
2018-12-13T01:26:18.053Z,1014.51
2018-12-13T01:27:18.073Z,1014.52
2018-12-13T01:28:18.042Z,1014.50
2018-12-13T01:29:18.025Z,1014.47
2018-12-13T01:30:18.004Z,1014.49
2018-12-13T01:31:18.004Z,1014.46
2018-12-13T01:32:17.994Z,1014.42
2018-12-13T01:33:17.993Z,1014.47
2018-12-13T01:34:17.965Z,1014.45
2018-12-13T01:35:17.962Z,1014.45
2018-12-13T01:36:17.958Z,1014.40
2018-12-13T01:37:17.928Z,1014.40
2018-12-13T01:38:17.948Z,1014.40
2018-12-13T01:39:17.918Z,1014.41
2018-12-13T01:40:17.897Z,1014.41
2018-12-13T01:41:17.894Z,1014.46
2018-12-13T01:42:17.878Z,1014.46
2018-12-13T01:43:17.893Z,1014.49
2018-12-13T01:44:17.856Z,1014.47
2018-12-13T01:45:17.861Z,1014.48
2018-12-13T01:46:17.841Z,1014.51
2018-12-13T01:47:17.845Z,1014.49
2018-12-13T01:48:17.841Z,1014.53
2018-12-13T01:49:17.819Z,1014.47
2018-12-13T01:50:17.787Z,1014.48
2018-12-13T01:51:17.779Z,1014.49
2018-12-13T01:52:17.778Z,1014.50
2018-12-13T01:53:17.776Z,1014.50
2018-12-13T01:54:17.754Z,1014.53
2018-12-13T01:55:17.753Z,1014.51
2018-12-13T01:56:17.736Z,1014.51
2018-12-13T01:57:17.716Z,1014.49
2018-12-13T01:58:17.737Z,1014.51
2018-12-13T01:59:17.705Z,1014.50
2018-12-13T02:00:17.683Z,1014.46
2018-12-13T02:01:17.677Z,1014.52
2018-12-13T02:02:17.670Z,1014.48
2018-12-13T02:03:17.674Z,1014.49
2018-12-13T02:04:17.642Z,1014.46
2018-12-13T02:05:17.630Z,1014.47
2018-12-13T02:06:17.633Z,1014.53
2018-12-13T02:07:17.609Z,1014.51
2018-12-13T02:08:17.622Z,1014.53
2018-12-13T02:09:17.587Z,1014.54
2018-12-13T02:10:17.576Z,1014.52
2018-12-13T02:11:17.570Z,1014.51
2018-12-13T02:12:17.561Z,1014.53
2018-12-13T02:13:17.568Z,1014.55
2018-12-13T02:14:17.551Z,1014.58
2018-12-13T02:15:17.529Z,1014.59
2018-12-13T02:17:26.710Z,1014.64
2018-12-13T02:18:27.710Z,1014.57
2018-12-13T02:19:27.683Z,1014.56
2018-12-13T02:20:27.667Z,1014.59
2018-12-13T02:21:27.666Z,1014.58
2018-12-13T02:22:27.655Z,1014.52
2018-12-13T02:23:27.651Z,1014.50
2018-12-13T02:24:27.632Z,1014.49
2018-12-13T02:25:27.606Z,1014.50
2018-12-13T02:26:27.611Z,1014.40
2018-12-13T02:27:27.595Z,1014.45
2018-12-13T02:28:27.605Z,1014.43
2018-12-13T02:29:27.578Z,1014.51
2018-12-13T02:30:27.561Z,1014.43
2018-12-13T02:31:27.552Z,1014.52
2018-12-13T02:32:27.547Z,1014.48
2018-12-13T02:33:27.559Z,1014.43
2018-12-13T02:34:27.519Z,1014.43
2018-12-13T02:35:27.503Z,1014.49
2018-12-13T02:36:27.502Z,1014.47
2018-12-13T02:37:27.496Z,1014.42
2018-12-13T02:38:27.507Z,1014.41
2018-12-13T02:39:27.477Z,1014.40
2018-12-13T02:40:27.446Z,1014.38
2018-12-13T02:41:27.442Z,1014.44
2018-12-13T02:42:27.441Z,1014.37
2018-12-13T02:43:27.432Z,1014.40
2018-12-13T02:44:27.411Z,1014.45
2018-12-13T02:45:27.390Z,1014.42
2018-12-13T02:46:27.382Z,1014.43
2018-12-13T02:47:27.407Z,1014.35
2018-12-13T02:48:27.387Z,1014.38
2018-12-13T02:49:27.351Z,1014.34
2018-12-13T02:50:27.351Z,1014.35
2018-12-13T02:51:27.338Z,1014.29
2018-12-13T02:52:27.327Z,1014.28
2018-12-13T02:53:27.342Z,1014.27
2018-12-13T02:54:27.321Z,1014.31
2018-12-13T02:55:27.290Z,1014.31
2018-12-13T02:56:27.293Z,1014.26
2018-12-13T02:57:27.280Z,1014.30
2018-12-13T02:58:27.282Z,1014.34
2018-12-13T02:59:27.258Z,1014.34
2018-12-13T03:00:27.236Z,1014.31
2018-12-13T03:01:27.226Z,1014.28
2018-12-13T03:02:27.219Z,1014.34
2018-12-13T03:03:27.233Z,1014.34
2018-12-13T03:04:27.218Z,1014.30
2018-12-13T03:05:27.229Z,1014.32
2018-12-13T03:06:27.166Z,1014.31
2018-12-13T03:07:27.155Z,1014.32
2018-12-13T03:08:27.165Z,1014.30
2018-12-13T03:09:27.158Z,1014.24
2018-12-13T03:10:27.117Z,1014.30
2018-12-13T03:11:27.117Z,1014.32
2018-12-13T03:12:27.102Z,1014.28
2018-12-13T03:13:27.121Z,1014.30
2018-12-13T03:14:27.073Z,1014.25
2018-12-13T03:15:27.069Z,1014.27
2018-12-13T03:16:27.072Z,1014.29
2018-12-13T03:17:27.041Z,1014.29
2018-12-13T03:18:27.059Z,1014.26
2018-12-13T03:19:27.039Z,1014.27
2018-12-13T03:20:27.009Z,1014.27
2018-12-13T03:21:27.003Z,1014.29
2018-12-13T03:22:26.989Z,1014.29
2018-12-13T03:23:26.975Z,1014.31
2018-12-13T03:24:26.997Z,1014.29
2018-12-13T03:25:26.956Z,1014.32
2018-12-13T03:26:26.942Z,1014.25
2018-12-13T03:27:26.929Z,1014.29
2018-12-13T03:28:26.931Z,1014.29
2018-12-13T03:29:26.944Z,1014.27
2018-12-13T03:30:26.921Z,1014.31
2018-12-13T03:31:26.885Z,1014.28
2018-12-13T03:32:26.928Z,1014.24
2018-12-13T03:33:26.885Z,1014.30
2018-12-13T03:34:26.887Z,1014.26
2018-12-13T03:35:26.854Z,1014.26
2018-12-13T03:36:26.850Z,1014.19
2018-12-13T03:37:26.831Z,1014.13
2018-12-13T03:38:26.819Z,1014.15
2018-12-13T03:39:26.825Z,1014.19
2018-12-13T03:40:26.798Z,1014.15
2018-12-13T03:41:26.785Z,1014.14
2018-12-13T03:42:26.761Z,1014.12
2018-12-13T03:43:26.759Z,1014.15
2018-12-13T03:44:26.769Z,1014.10
2018-12-13T03:45:26.731Z,1014.04
2018-12-13T03:46:26.728Z,1014.03
2018-12-13T03:47:26.705Z,1014.07
2018-12-13T03:48:26.706Z,1014.03
2018-12-13T03:49:26.712Z,1013.98
2018-12-13T03:50:26.690Z,1014.00
2018-12-13T03:51:26.669Z,1014.00
2018-12-13T03:52:26.652Z,1013.96
2018-12-13T03:53:26.651Z,1013.93
2018-12-13T03:54:26.651Z,1013.95
2018-12-13T03:55:26.626Z,1013.91
2018-12-13T03:56:26.607Z,1013.88
2018-12-13T03:57:26.592Z,1013.93
2018-12-13T03:58:26.590Z,1013.92
2018-12-13T03:59:26.607Z,1013.88
2018-12-13T04:00:26.568Z,1013.87
2018-12-13T04:01:26.556Z,1013.89
2018-12-13T04:02:26.545Z,1013.94
2018-12-13T04:03:26.539Z,1013.94
2018-12-13T04:04:26.543Z,1013.91
2018-12-13T04:05:26.520Z,1013.89
2018-12-13T04:06:26.505Z,1013.91
2018-12-13T04:07:27.821Z,1013.88
2018-12-13T04:08:26.468Z,1013.88
2018-12-13T04:09:26.482Z,1013.95
2018-12-13T04:10:26.444Z,1013.95
2018-12-13T04:11:26.445Z,1013.95
2018-12-13T04:12:26.431Z,1013.94
2018-12-13T04:13:26.416Z,1013.93
2018-12-13T04:14:26.450Z,1013.91
2018-12-13T04:15:26.399Z,1013.89
2018-12-13T04:16:26.500Z,1013.94
2018-12-13T04:18:35.562Z,1013.90
2018-12-13T04:19:36.577Z,1013.90
2018-12-13T04:20:36.527Z,1013.90
2018-12-13T04:21:36.525Z,1013.88
2018-12-13T04:22:36.511Z,1013.90
2018-12-13T04:23:36.508Z,1013.90
2018-12-13T04:24:36.514Z,1013.90
2018-12-13T04:25:36.482Z,1013.88
2018-12-13T04:26:36.477Z,1013.90
2018-12-13T04:27:36.470Z,1013.87
2018-12-13T04:28:36.460Z,1013.83
2018-12-13T04:29:36.456Z,1013.85
2018-12-13T04:30:36.437Z,1013.84
2018-12-13T04:31:36.418Z,1013.86
2018-12-13T04:32:36.403Z,1013.87
2018-12-13T04:33:36.391Z,1013.88
2018-12-13T04:34:36.439Z,1013.87
2018-12-13T04:35:36.369Z,1013.86
2018-12-13T04:36:36.379Z,1013.88
2018-12-13T04:37:36.346Z,1013.91
2018-12-13T04:38:36.336Z,1013.88
2018-12-13T04:39:36.350Z,1013.89
2018-12-13T04:40:36.313Z,1013.83
2018-12-13T04:41:36.298Z,1013.88
2018-12-13T04:42:36.284Z,1013.86
2018-12-13T04:43:36.283Z,1013.84
2018-12-13T04:44:37.838Z,1013.84
2018-12-13T04:45:36.255Z,1013.83
2018-12-13T04:46:36.239Z,1013.79
2018-12-13T04:47:36.242Z,1013.84
2018-12-13T04:48:36.217Z,1013.81
2018-12-13T04:49:36.232Z,1013.79
2018-12-13T04:50:36.274Z,1013.76
2018-12-13T04:51:36.213Z,1013.78
2018-12-13T04:52:36.174Z,1013.78
2018-12-13T04:53:36.234Z,1013.76
2018-12-13T04:54:36.169Z,1013.70
2018-12-13T04:55:36.145Z,1013.69
2018-12-13T04:56:36.133Z,1013.68
2018-12-13T04:57:36.119Z,1013.71
2018-12-13T04:58:36.119Z,1013.69
2018-12-13T04:59:36.120Z,1013.70
2018-12-13T05:00:36.093Z,1013.68
2018-12-13T05:01:36.067Z,1013.68
2018-12-13T05:02:36.055Z,1013.67
2018-12-13T05:03:36.047Z,1013.66
2018-12-13T05:04:36.069Z,1013.67
2018-12-13T05:05:36.028Z,1013.68
2018-12-13T05:06:36.011Z,1013.66
2018-12-13T05:07:41.499Z,1013.63
2018-12-13T05:08:35.991Z,1013.64
2018-12-13T05:09:35.985Z,1013.66
2018-12-13T05:10:35.988Z,1013.62
2018-12-13T05:11:35.978Z,1013.67
2018-12-13T05:12:35.945Z,1013.68
2018-12-13T05:13:35.931Z,1013.70
2018-12-13T05:14:35.923Z,1013.58
2018-12-13T05:15:35.949Z,1013.65
2018-12-13T05:16:35.932Z,1013.66
2018-12-13T05:17:35.900Z,1013.57
2018-12-13T05:18:35.884Z,1013.55
2018-12-13T05:19:35.878Z,1013.59
2018-12-13T05:20:35.893Z,1013.53
2018-12-13T05:21:35.859Z,1013.56
2018-12-13T05:22:35.853Z,1013.54
2018-12-13T05:23:35.836Z,1013.54
2018-12-13T05:24:35.820Z,1013.51
2018-12-13T05:25:35.841Z,1013.48
2018-12-13T05:26:35.807Z,1013.48
2018-12-13T05:27:35.784Z,1013.52
2018-12-13T05:28:35.782Z,1013.52
2018-12-13T05:29:35.760Z,1013.51
2018-12-13T05:30:35.781Z,1013.53
2018-12-13T05:31:35.741Z,1013.49
2018-12-13T05:32:35.725Z,1013.47
2018-12-13T05:33:35.714Z,1013.48
2018-12-13T05:34:35.697Z,1013.48
2018-12-13T05:35:35.705Z,1013.46
2018-12-13T05:36:35.722Z,1013.45
2018-12-13T05:37:35.676Z,1013.48
2018-12-13T05:38:35.661Z,1013.48
2018-12-13T05:39:35.651Z,1013.48
2018-12-13T05:40:35.639Z,1013.45
2018-12-13T05:41:35.645Z,1013.45
2018-12-13T05:42:35.613Z,1013.52
2018-12-13T05:43:35.608Z,1013.46
2018-12-13T05:44:35.595Z,1013.48
2018-12-13T05:45:35.583Z,1013.46
2018-12-13T05:46:35.597Z,1013.43
2018-12-13T05:47:35.556Z,1013.43
2018-12-13T05:48:35.549Z,1013.41
2018-12-13T05:49:35.544Z,1013.38
2018-12-13T05:50:35.519Z,1013.41
2018-12-13T05:51:35.543Z,1013.40
2018-12-13T05:52:35.511Z,1013.39
2018-12-13T05:53:35.492Z,1013.37
2018-12-13T05:54:35.481Z,1013.44
2018-12-13T05:55:35.477Z,1013.41
2018-12-13T05:56:35.492Z,1013.40
2018-12-13T05:57:35.449Z,1013.39
2018-12-13T05:58:35.442Z,1013.35
2018-12-13T05:59:35.432Z,1013.42
2018-12-13T06:00:35.411Z,1013.41
2018-12-13T06:01:35.434Z,1013.39
2018-12-13T06:02:35.394Z,1013.35
2018-12-13T06:03:35.384Z,1013.36
2018-12-13T06:04:35.366Z,1013.33
2018-12-13T06:05:35.373Z,1013.35
2018-12-13T06:06:35.366Z,1013.30
2018-12-13T06:07:35.344Z,1013.37
2018-12-13T06:08:35.327Z,1013.29
2018-12-13T06:09:35.311Z,1013.32
2018-12-13T06:10:35.300Z,1013.30
2018-12-13T06:11:35.316Z,1013.37
2018-12-13T06:12:35.273Z,1013.28
2018-12-13T06:13:35.271Z,1013.33
2018-12-13T06:14:35.262Z,1013.34
2018-12-13T06:15:35.255Z,1013.28
2018-12-13T06:16:35.246Z,1013.33
2018-12-13T06:17:35.219Z,1013.28
2018-12-13T06:19:44.420Z,1013.28
2018-12-13T06:20:45.397Z,1013.32
2018-12-13T06:21:45.482Z,1013.32
2018-12-13T06:22:45.374Z,1013.29
2018-12-13T06:23:45.369Z,1013.30
2018-12-13T06:24:45.356Z,1013.34
2018-12-13T06:25:45.351Z,1013.39
2018-12-13T06:26:45.347Z,1013.39
2018-12-13T06:27:45.324Z,1013.38
2018-12-13T06:28:45.313Z,1013.35
2018-12-13T06:29:48.820Z,1013.40
2018-12-13T06:30:45.281Z,1013.39
2018-12-13T06:31:45.303Z,1013.39
2018-12-13T06:32:45.277Z,1013.42
2018-12-13T06:33:45.269Z,1013.37
2018-12-13T06:34:45.251Z,1013.43
2018-12-13T06:35:45.238Z,1013.39
2018-12-13T06:36:45.245Z,1013.36
2018-12-13T06:37:45.225Z,1013.38
2018-12-13T06:38:45.202Z,1013.41
2018-12-13T06:39:45.187Z,1013.42
2018-12-13T06:40:45.177Z,1013.37
2018-12-13T06:41:45.194Z,1013.46
2018-12-13T06:42:45.154Z,1013.48
2018-12-13T06:43:45.160Z,1013.50
2018-12-13T06:44:45.136Z,1013.48
2018-12-13T06:45:45.165Z,1013.52
2018-12-13T06:46:45.144Z,1013.53
2018-12-13T06:47:45.114Z,1013.52
2018-12-13T06:48:45.171Z,1013.49
2018-12-13T06:49:45.768Z,1013.54
2018-12-13T06:50:45.069Z,1013.55
2018-12-13T06:51:45.091Z,1013.55
2018-12-13T06:52:45.142Z,1013.52
2018-12-13T06:53:45.063Z,1013.56
2018-12-13T06:54:45.019Z,1013.52
2018-12-13T06:55:45.080Z,1013.55
2018-12-13T06:56:45.005Z,1013.50
2018-12-13T06:57:44.991Z,1013.52
2018-12-13T06:58:44.980Z,1013.54
2018-12-13T06:59:44.965Z,1013.53
2018-12-13T07:00:44.965Z,1013.54
2018-12-13T07:01:44.992Z,1013.55
2018-12-13T07:02:45.229Z,1013.59
2018-12-13T07:03:44.934Z,1013.55
2018-12-13T07:04:44.917Z,1013.54
2018-12-13T07:05:44.896Z,1013.55
2018-12-13T07:06:44.904Z,1013.50
2018-12-13T07:07:44.878Z,1013.55
2018-12-13T07:08:45.122Z,1013.54
2018-12-13T07:09:44.890Z,1013.51
2018-12-13T07:10:44.855Z,1013.49
2018-12-13T07:11:44.838Z,1013.51
2018-12-13T07:12:44.825Z,1013.54
2018-12-13T07:13:44.840Z,1013.48
2018-12-13T07:14:44.801Z,1013.51
2018-12-13T07:15:44.787Z,1013.53
2018-12-13T07:16:44.808Z,1013.52
2018-12-13T07:17:44.770Z,1013.54
2018-12-13T07:18:44.787Z,1013.54
2018-12-13T07:19:44.757Z,1013.57
2018-12-13T07:20:44.741Z,1013.51
2018-12-13T07:21:44.735Z,1013.53
2018-12-13T07:22:44.722Z,1013.51
2018-12-13T07:23:44.730Z,1013.48
2018-12-13T07:24:44.713Z,1013.49
2018-12-13T07:25:44.690Z,1013.55
2018-12-13T07:26:44.687Z,1013.53
2018-12-13T07:27:44.672Z,1013.52
2018-12-13T07:28:44.685Z,1013.45
2018-12-13T07:29:44.723Z,1013.49
2018-12-13T07:30:44.633Z,1013.48
2018-12-13T07:31:44.616Z,1013.53
2018-12-13T07:32:44.610Z,1013.55
2018-12-13T07:33:44.623Z,1013.55
2018-12-13T07:34:44.592Z,1013.51
2018-12-13T07:35:44.575Z,1013.54
2018-12-13T07:36:44.567Z,1013.54
2018-12-13T07:37:44.560Z,1013.54
2018-12-13T07:38:44.597Z,1013.52
2018-12-13T07:39:44.538Z,1013.54
2018-12-13T07:40:44.524Z,1013.51
2018-12-13T07:41:44.525Z,1013.57
2018-12-13T07:42:44.503Z,1013.56
2018-12-13T07:43:44.555Z,1013.62
2018-12-13T07:44:44.489Z,1013.53
2018-12-13T07:45:44.483Z,1013.49
2018-12-13T07:46:44.463Z,1013.61
2018-12-13T07:47:44.445Z,1013.52
2018-12-13T07:48:44.456Z,1013.55
2018-12-13T07:49:44.431Z,1013.56
2018-12-13T07:50:44.584Z,1013.51
2018-12-13T07:51:44.421Z,1013.56
2018-12-13T07:52:44.390Z,1013.57
2018-12-13T07:53:44.421Z,1013.52
2018-12-13T07:54:44.380Z,1013.54
2018-12-13T07:55:44.371Z,1013.55
2018-12-13T07:56:44.361Z,1013.55
2018-12-13T07:57:44.360Z,1013.50
2018-12-13T07:58:45.206Z,1013.51
2018-12-13T07:59:44.649Z,1013.49
2018-12-13T08:00:44.370Z,1013.47
2018-12-13T08:01:44.315Z,1013.52
2018-12-13T08:02:44.294Z,1013.50
2018-12-13T08:03:44.276Z,1013.53
2018-12-13T08:04:44.300Z,1013.48
2018-12-13T08:05:44.278Z,1013.56
2018-12-13T08:06:44.238Z,1013.51
2018-12-13T08:07:44.240Z,1013.55
2018-12-13T08:08:44.227Z,1013.56
2018-12-13T08:09:44.246Z,1013.58
2018-12-13T08:10:44.261Z,1013.64
2018-12-13T08:11:44.210Z,1013.62
2018-12-13T08:12:44.316Z,1013.62
2018-12-13T08:13:45.370Z,1013.66
2018-12-13T08:14:44.174Z,1013.60
2018-12-13T08:15:44.152Z,1013.58
2018-12-13T08:16:44.196Z,1013.60
2018-12-13T08:17:44.128Z,1013.59
2018-12-13T08:18:44.128Z,1013.63
2018-12-13T08:20:53.426Z,1013.59
2018-12-13T08:21:54.310Z,1013.61
2018-12-13T08:22:54.295Z,1013.60
2018-12-13T08:23:54.295Z,1013.59
2018-12-13T08:24:54.286Z,1013.59
2018-12-13T08:25:54.284Z,1013.55
2018-12-13T08:26:54.261Z,1013.58
2018-12-13T08:27:54.237Z,1013.53
2018-12-13T08:28:54.231Z,1013.50
2018-12-13T08:29:54.231Z,1013.49
2018-12-13T08:30:54.242Z,1013.47
2018-12-13T08:31:54.211Z,1013.45
2018-12-13T08:32:54.208Z,1013.44
2018-12-13T08:33:54.181Z,1013.41
2018-12-13T08:34:54.176Z,1013.41
2018-12-13T08:35:54.201Z,1013.45
2018-12-13T08:36:54.161Z,1013.44
2018-12-13T08:37:54.144Z,1013.41
2018-12-13T08:38:54.120Z,1013.40
2018-12-13T08:39:54.125Z,1013.37
2018-12-13T08:40:54.141Z,1013.38
2018-12-13T08:41:54.103Z,1013.37
2018-12-13T08:42:54.080Z,1013.36
2018-12-13T08:43:54.084Z,1013.36
2018-12-13T08:44:54.061Z,1013.32
2018-12-13T08:45:54.078Z,1013.35
2018-12-13T08:46:54.043Z,1013.35
2018-12-13T08:47:54.070Z,1013.34
2018-12-13T08:48:54.031Z,1013.38
2018-12-13T08:49:54.005Z,1013.31
2018-12-13T08:50:54.347Z,1013.35
2018-12-13T08:51:54.000Z,1013.42
2018-12-13T08:52:53.999Z,1013.41
2018-12-13T08:53:53.977Z,1013.42
2018-12-13T08:54:53.955Z,1013.42
2018-12-13T08:55:54.613Z,1013.41
2018-12-13T08:56:53.943Z,1013.36
2018-12-13T08:57:53.946Z,1013.42
2018-12-13T08:58:53.931Z,1013.39
2018-12-13T08:59:53.979Z,1013.42
2018-12-13T09:00:53.895Z,1013.40
2018-12-13T09:01:53.900Z,1013.44
2018-12-13T09:02:53.889Z,1013.46
2018-12-13T09:03:53.957Z,1013.40
2018-12-13T09:04:53.956Z,1013.42
2018-12-13T09:05:53.850Z,1013.41
2018-12-13T09:06:53.860Z,1013.43
2018-12-13T09:07:53.851Z,1013.43
2018-12-13T09:08:53.831Z,1013.44
2018-12-13T09:09:53.793Z,1013.43
2018-12-13T09:10:53.787Z,1013.43
2018-12-13T09:11:53.809Z,1013.41
2018-12-13T09:12:54.748Z,1013.42
2018-12-13T09:13:53.756Z,1013.44
2018-12-13T09:14:53.770Z,1013.42
2018-12-13T09:15:53.730Z,1013.41
2018-12-13T09:16:53.740Z,1013.47
2018-12-13T09:17:53.710Z,1013.48
2018-12-13T09:18:53.697Z,1013.47
2018-12-13T09:19:54.554Z,1013.45
2018-12-13T09:20:53.849Z,1013.45
2018-12-13T09:21:53.858Z,1013.44
2018-12-13T09:22:53.662Z,1013.44
2018-12-13T09:23:53.658Z,1013.44
2018-12-13T09:24:53.631Z,1013.41
2018-12-13T09:25:53.619Z,1013.39
2018-12-13T09:26:53.643Z,1013.42
2018-12-13T09:27:54.111Z,1013.37
2018-12-13T09:28:53.660Z,1013.44
2018-12-13T09:29:54.692Z,1013.44
2018-12-13T09:30:53.615Z,1013.42
2018-12-13T09:31:53.595Z,1013.41
2018-12-13T09:32:53.553Z,1013.43
2018-12-13T09:33:53.565Z,1013.39
2018-12-13T09:34:53.629Z,1013.45
2018-12-13T09:35:53.578Z,1013.47
2018-12-13T09:36:53.713Z,1013.46
2018-12-13T09:37:56.107Z,1013.47
2018-12-13T09:38:53.480Z,1013.50
2018-12-13T09:39:53.483Z,1013.46
2018-12-13T09:40:53.557Z,1013.44
2018-12-13T09:41:53.590Z,1013.48
2018-12-13T09:42:53.439Z,1013.44
2018-12-13T09:43:53.442Z,1013.48
2018-12-13T09:44:53.457Z,1013.44
2018-12-13T09:45:53.513Z,1013.43
2018-12-13T09:46:53.427Z,1013.42
2018-12-13T09:47:53.391Z,1013.47
2018-12-13T09:48:53.431Z,1013.47
2018-12-13T09:49:53.488Z,1013.44
2018-12-13T09:50:53.354Z,1013.43
2018-12-13T09:51:53.374Z,1013.39
2018-12-13T09:52:53.341Z,1013.41
2018-12-13T09:53:53.343Z,1013.42
2018-12-13T09:54:53.313Z,1013.40
2018-12-13T09:55:53.299Z,1013.39
2018-12-13T09:56:53.325Z,1013.39
2018-12-13T09:57:53.287Z,1013.38
2018-12-13T09:58:53.267Z,1013.37
2018-12-13T09:59:53.257Z,1013.35
2018-12-13T10:00:53.272Z,1013.35
2018-12-13T10:01:53.267Z,1013.34
2018-12-13T10:02:53.236Z,1013.35
2018-12-13T10:03:53.232Z,1013.27
2018-12-13T10:04:53.216Z,1013.22
2018-12-13T10:05:53.201Z,1013.29
2018-12-13T10:06:53.216Z,1013.27
2018-12-13T10:07:53.196Z,1013.27
2018-12-13T10:08:53.164Z,1013.26
2018-12-13T10:09:53.151Z,1013.26
2018-12-13T10:10:53.139Z,1013.30
2018-12-13T10:11:53.161Z,1013.29
2018-12-13T10:12:53.672Z,1013.33
2018-12-13T10:13:53.136Z,1013.23
2018-12-13T10:14:53.105Z,1013.25
2018-12-13T10:15:53.088Z,1013.25
2018-12-13T10:16:53.173Z,1013.22
2018-12-13T10:17:53.081Z,1013.29
2018-12-13T10:18:53.078Z,1013.32
2018-12-13T10:19:53.040Z,1013.28
2018-12-13T10:22:03.394Z,1013.38
2018-12-13T10:23:04.355Z,1013.22
2018-12-13T10:24:04.344Z,1013.29
2018-12-13T10:25:04.292Z,1013.30
2018-12-13T10:26:04.290Z,1013.32
2018-12-13T10:27:04.319Z,1013.27
2018-12-13T10:28:04.278Z,1013.26
2018-12-13T10:29:04.398Z,1013.32
2018-12-13T10:30:04.480Z,1013.28
2018-12-13T10:31:04.322Z,1013.30
2018-12-13T10:32:05.061Z,1013.20
2018-12-13T10:33:04.344Z,1013.24
2018-12-13T10:34:04.212Z,1013.21
2018-12-13T10:35:04.228Z,1013.25
2018-12-13T10:36:04.187Z,1013.20
2018-12-13T10:37:04.173Z,1013.22
2018-12-13T10:38:04.190Z,1013.23
2018-12-13T10:39:04.145Z,1013.25
2018-12-13T10:40:04.142Z,1013.24
2018-12-13T10:41:04.126Z,1013.19
2018-12-13T10:42:04.108Z,1013.18
2018-12-13T10:43:04.104Z,1013.16
2018-12-13T10:44:04.183Z,1013.18
2018-12-13T10:45:04.076Z,1013.19
2018-12-13T10:46:04.064Z,1013.17
2018-12-13T10:47:04.071Z,1013.18
2018-12-13T10:48:04.047Z,1013.16
2018-12-13T10:49:04.073Z,1013.19
2018-12-13T10:50:04.504Z,1013.18
2018-12-13T10:51:04.022Z,1013.14
2018-12-13T10:52:04.003Z,1013.13
2018-12-13T10:53:03.991Z,1013.18
2018-12-13T10:54:03.999Z,1013.18
2018-12-13T10:55:03.990Z,1013.18
2018-12-13T10:56:05.078Z,1013.12
2018-12-13T10:57:03.950Z,1013.15
2018-12-13T10:58:03.935Z,1013.13
2018-12-13T10:59:03.927Z,1013.12
2018-12-13T11:00:04.060Z,1013.13
2018-12-13T11:01:03.908Z,1013.06
2018-12-13T11:02:03.893Z,1013.06
2018-12-13T11:03:03.893Z,1013.07
2018-12-13T11:04:03.878Z,1013.05
2018-12-13T11:05:03.885Z,1013.08
2018-12-13T11:06:03.854Z,1013.05
2018-12-13T11:07:03.847Z,1013.01
2018-12-13T11:08:03.856Z,1013.04
2018-12-13T11:09:03.831Z,1013.04
2018-12-13T11:10:03.846Z,1013.02
2018-12-13T11:11:03.819Z,1013.02
2018-12-13T11:12:03.785Z,1013.03
2018-12-13T11:13:03.807Z,1013.03
2018-12-13T11:14:03.773Z,1013.00
2018-12-13T11:15:03.779Z,1012.96
2018-12-13T11:16:03.754Z,1012.96
2018-12-13T11:17:03.824Z,1013.00
2018-12-13T11:18:03.718Z,1013.00
2018-12-13T11:19:03.731Z,1012.98
2018-12-13T11:20:03.737Z,1012.99
2018-12-13T11:21:03.818Z,1012.96
2018-12-13T11:22:03.692Z,1012.97
2018-12-13T11:23:03.680Z,1012.88
2018-12-13T11:24:03.669Z,1013.01
2018-12-13T11:25:03.674Z,1012.99
2018-12-13T11:26:03.651Z,1012.91
2018-12-13T11:27:03.632Z,1012.90
2018-12-13T11:28:03.625Z,1012.86
2018-12-13T11:29:03.616Z,1012.83
2018-12-13T11:30:03.648Z,1012.82
2018-12-13T11:31:03.595Z,1012.83
2018-12-13T11:32:03.568Z,1012.84
2018-12-13T11:33:03.574Z,1012.81
2018-12-13T11:34:03.563Z,1012.80
2018-12-13T11:35:03.567Z,1012.79
2018-12-13T11:36:03.548Z,1012.79
2018-12-13T11:37:03.529Z,1012.79
2018-12-13T11:38:03.531Z,1012.73
2018-12-13T11:39:05.878Z,1012.70
2018-12-13T11:40:03.512Z,1012.66
2018-12-13T11:41:03.492Z,1012.65
2018-12-13T11:42:03.475Z,1012.66
2018-12-13T11:43:03.525Z,1012.69
2018-12-13T11:44:03.445Z,1012.68
2018-12-13T11:45:03.472Z,1012.71
2018-12-13T11:46:03.511Z,1012.82
2018-12-13T11:47:03.461Z,1012.76
2018-12-13T11:48:03.414Z,1012.74
2018-12-13T11:49:03.427Z,1012.72
2018-12-13T11:50:03.403Z,1012.72
2018-12-13T11:51:03.385Z,1012.72
2018-12-13T11:52:03.392Z,1012.66
2018-12-13T11:53:03.350Z,1012.68
2018-12-13T11:54:03.333Z,1012.61
2018-12-13T11:55:03.355Z,1012.62
2018-12-13T11:56:03.420Z,1012.60
2018-12-13T11:57:03.323Z,1012.60
2018-12-13T11:58:03.305Z,1012.58
2018-12-13T11:59:03.328Z,1012.51
2018-12-13T12:00:03.354Z,1012.54
2018-12-13T12:01:03.279Z,1012.55
2018-12-13T12:02:03.265Z,1012.55
2018-12-13T12:03:03.296Z,1012.54
2018-12-13T12:04:03.388Z,1012.49
2018-12-13T12:05:03.227Z,1012.52
2018-12-13T12:06:03.237Z,1012.50
2018-12-13T12:07:03.203Z,1012.47
2018-12-13T12:08:03.200Z,1012.47
2018-12-13T12:09:03.232Z,1012.43
2018-12-13T12:10:03.980Z,1012.49
2018-12-13T12:11:03.188Z,1012.47
2018-12-13T12:12:03.489Z,1012.45